sensor_id;sensor_type;location;lat;lon;timestamp;P1;P2;P0
55857;PMS7003;41779;52.360;31.026;2023-12-28T00:01:35;0.4;0;0
55857;PMS7003;41779;52.360;31.026;2023-12-28T00:06:49;0.2;0;0
55857;PMS7003;41779;52.360;31.026;2023-12-28T00:12:25;1.2;0.4;0.2
55857;PMS7003;41779;52.360;31.026;2023-12-28T00:17:13;0.6;0;0
55857;PMS7003;41779;52.360;31.026;2023-12-28T00:22:15;0.6;0;0
55857;PMS7003;41779;52.360;31.026;2023-12-28T00:27:09;1.8;0.2;0.2
55857;PMS7003;41779;52.360;31.026;2023-12-28T00:31:41;1.6;0.2;0.2
55857;PMS7003;41779;52.360;31.026;2023-12-28T00:36:37;0;0;0
55857;PMS7003;41779;52.360;31.026;2023-12-28T00:42:23;1.4;0.2;0.2
55857;PMS7003;41779;52.360;31.026;2023-12-28T00:46:41;1;0.2;0
55857;PMS7003;41779;52.360;31.026;2023-12-28T00:51:37;0.4;0;0
55857;PMS7003;41779;52.360;31.026;2023-12-28T00:56:53;0.3;0;0
55857;PMS7003;41779;52.360;31.026;2023-12-28T01:01:59;0.4;0.2;0.2
55857;PMS7003;41779;52.360;31.026;2023-12-28T01:06:37;1.4;0.8;0.4
55857;PMS7003;41779;52.360;31.026;2023-12-28T01:11:51;0.6;0.6;0.4
55857;PMS7003;41779;52.360;31.026;2023-12-28T01:17:27;2.2;0.4;0.4
55857;PMS7003;41779;52.360;31.026;2023-12-28T01:22:15;1;0;0
55857;PMS7003;41779;52.360;31.026;2023-12-28T01:26:51;1;0;0
55857;PMS7003;41779;52.360;31.026;2023-12-28T01:31:43;1.6;0.4;0.2
55857;PMS7003;41779;52.360;31.026;2023-12-28T01:37:27;1.4;0.2;0.2
55857;PMS7003;41779;52.360;31.026;2023-12-28T01:41:37;0.6;0;0
55857;PMS7003;41779;52.360;31.026;2023-12-28T01:46:35;0.8;0.4;0.2
55857;PMS7003;41779;52.360;31.026;2023-12-28T01:52:17;0.2;0;0
55857;PMS7003;41779;52.360;31.026;2023-12-28T01:56:57;1.3;0;0
55857;PMS7003;41779;52.360;31.026;2023-12-28T02:02:27;0.8;0.2;0
55857;PMS7003;41779;52.360;31.026;2023-12-28T02:07:01;0.4;0;0
55857;PMS7003;41779;52.360;31.026;2023-12-28T02:11:35;0.4;0.2;0
55857;PMS7003;41779;52.360;31.026;2023-12-28T02:17:06;0.2;0;0
55857;PMS7003;41779;52.360;31.026;2023-12-28T02:22:25;0.2;0;0
55857;PMS7003;41779;52.360;31.026;2023-12-28T02:27:09;0;0;0
55857;PMS7003;41779;52.360;31.026;2023-12-28T02:32:17;0.6;0;0
55857;PMS7003;41779;52.360;31.026;2023-12-28T02:37:25;0;0;0
55857;PMS7003;41779;52.360;31.026;2023-12-28T02:42:11;0.2;0;0
55857;PMS7003;41779;52.360;31.026;2023-12-28T02:46:41;0;0;0
55857;PMS7003;41779;52.360;31.026;2023-12-28T02:51:37;0.2;0;0
55857;PMS7003;41779;52.360;31.026;2023-12-28T02:57:23;0.5;0;0
55857;PMS7003;41779;52.360;31.026;2023-12-28T03:01:59;0.2;0;0
55857;PMS7003;41779;52.360;31.026;2023-12-28T03:06:35;2.4;1.8;1.4
55857;PMS7003;41779;52.360;31.026;2023-12-28T03:12:15;9.6;5.6;3.8
55857;PMS7003;41779;52.360;31.026;2023-12-28T03:16:55;1.4;0.4;0.2
55857;PMS7003;41779;52.360;31.026;2023-12-28T03:21:38;1;0.2;0
55857;PMS7003;41779;52.360;31.026;2023-12-28T03:26:51;1;1;0.4
55857;PMS7003;41779;52.360;31.026;2023-12-28T03:31:55;0.2;0;0
55857;PMS7003;41779;52.360;31.026;2023-12-28T03:37:27;0.8;0.2;0
55857;PMS7003;41779;52.360;31.026;2023-12-28T03:42:11;0.4;0;0
55857;PMS7003;41779;52.360;31.026;2023-12-28T03:46:53;0;0;0
55857;PMS7003;41779;52.360;31.026;2023-12-28T03:52:15;0.6;0.2;0.2
55857;PMS7003;41779;52.360;31.026;2023-12-28T03:56:41;0.8;0.3;0
55857;PMS7003;41779;52.360;31.026;2023-12-28T04:01:37;1.2;0.4;0
55857;PMS7003;41779;52.360;31.026;2023-12-28T04:06:57;0.4;0.4;0.4
55857;PMS7003;41779;52.360;31.026;2023-12-28T04:12:07;0.4;0.2;0
55857;PMS7003;41779;52.360;31.026;2023-12-28T04:17:19;0.4;0.2;0
55857;PMS7003;41779;52.360;31.026;2023-12-28T04:21:45;0.2;0;0
55857;PMS7003;41779;52.360;31.026;2023-12-28T04:26:35;0.2;0;0
55857;PMS7003;41779;52.360;31.026;2023-12-28T04:32:03;0;0;0
55857;PMS7003;41779;52.360;31.026;2023-12-28T04:36:41;0.4;0;0
55857;PMS7003;41779;52.360;31.026;2023-12-28T04:42:15;0.8;0;0
55857;PMS7003;41779;52.360;31.026;2023-12-28T04:47:15;1.6;1;0.8
55857;PMS7003;41779;52.360;31.026;2023-12-28T04:52:25;2.8;1.6;1
55857;PMS7003;41779;52.360;31.026;2023-12-28T04:56:37;3.8;2.3;1.5
55857;PMS7003;41779;52.360;31.026;2023-12-28T05:01:51;2.4;1.4;0.8
55857;PMS7003;41779;52.360;31.026;2023-12-28T05:07:11;1.6;0;0
55857;PMS7003;41779;52.360;31.026;2023-12-28T05:11:49;0.8;0.6;0.6
55857;PMS7003;41779;52.360;31.026;2023-12-28T05:16:37;1.6;0.4;0
55857;PMS7003;41779;52.360;31.026;2023-12-28T05:22:01;3;1.8;1.4
55857;PMS7003;41779;52.360;31.026;2023-12-28T05:27:17;3.4;2.4;1.8
55857;PMS7003;41779;52.360;31.026;2023-12-28T05:32:11;8.6;5.6;4.4
55857;PMS7003;41779;52.360;31.026;2023-12-28T05:36:41;4.6;2;1.6
55857;PMS7003;41779;52.360;31.026;2023-12-28T05:42:27;1;0;0
55857;PMS7003;41779;52.360;31.026;2023-12-28T05:47:15;1.2;0.6;0.4
55857;PMS7003;41779;52.360;31.026;2023-12-28T05:51:57;1.4;0.4;0.2
55857;PMS7003;41779;52.360;31.026;2023-12-28T05:57:11;1;0.8;0.6
55857;PMS7003;41779;52.360;31.026;2023-12-28T06:02:27;0;0;0
55857;PMS7003;41779;52.360;31.026;2023-12-28T06:06:43;1;0.8;0.8
55857;PMS7003;41779;52.360;31.026;2023-12-28T06:11:49;0.6;0.2;0
55857;PMS7003;41779;52.360;31.026;2023-12-28T06:17:13;1;0.6;0.6
55857;PMS7003;41779;52.360;31.026;2023-12-28T06:22:15;1.2;0.8;0.8
55857;PMS7003;41779;52.360;31.026;2023-12-28T06:27:25;0.4;0.4;0.2
55857;PMS7003;41779;52.360;31.026;2023-12-28T06:31:35;0.6;0.6;0.6
55857;PMS7003;41779;52.360;31.026;2023-12-28T06:36:43;0.8;0;0
55857;PMS7003;41779;52.360;31.026;2023-12-28T06:42:03;0.4;0.2;0.2
55857;PMS7003;41779;52.360;31.026;2023-12-28T06:47:23;0.8;0;0
55857;PMS7003;41779;52.360;31.026;2023-12-28T06:52:13;1;0.6;0.4
55857;PMS7003;41779;52.360;31.026;2023-12-28T06:57:07;1;0.6;0.4
55857;PMS7003;41779;52.360;31.026;2023-12-28T07:02:23;2;1;0.8
55857;PMS7003;41779;52.360;31.026;2023-12-28T07:07:03;1.8;1.2;1.2
55857;PMS7003;41779;52.360;31.026;2023-12-28T07:11:37;2.4;0.8;0.6
55857;PMS7003;41779;52.360;31.026;2023-12-28T07:17:13;1.6;0.2;0.2
55857;PMS7003;41779;52.360;31.026;2023-12-28T07:22:27;0.6;0.4;0.4
55857;PMS7003;41779;52.360;31.026;2023-12-28T07:27:05;1.6;1;1
55857;PMS7003;41779;52.360;31.026;2023-12-28T07:32:07;0.6;0.2;0.2
55857;PMS7003;41779;52.360;31.026;2023-12-28T07:37:25;0.2;0.2;0
55857;PMS7003;41779;52.360;31.026;2023-12-28T07:42:17;1.8;0.2;0.2
55857;PMS7003;41779;52.360;31.026;2023-12-28T07:46:35;1;0.4;0.2
55857;PMS7003;41779;52.360;31.026;2023-12-28T07:51:51;1.8;0.8;0.4
55857;PMS7003;41779;52.360;31.026;2023-12-28T07:57:17;0.6;0.6;0.4
55857;PMS7003;41779;52.360;31.026;2023-12-28T08:02:07;0;0;0
55857;PMS7003;41779;52.360;31.026;2023-12-28T08:07:13;0.6;0.4;0.2
55857;PMS7003;41779;52.360;31.026;2023-12-28T08:11:37;1.4;0.4;0.4
55857;PMS7003;41779;52.360;31.026;2023-12-28T08:16:35;2.2;0.8;0.8
55857;PMS7003;41779;52.360;31.026;2023-12-28T08:21:51;1.8;1;1
55857;PMS7003;41779;52.360;31.026;2023-12-28T08:26:43;1.8;0.8;0.6
55857;PMS7003;41779;52.360;31.026;2023-12-28T08:32:09;1;1;1
55857;PMS7003;41779;52.360;31.026;2023-12-28T08:37:07;2;0.4;0.4
55857;PMS7003;41779;52.360;31.026;2023-12-28T08:42:27;2.2;1;1
55857;PMS7003;41779;52.360;31.026;2023-12-28T08:47:01;6.6;4;3.2
55857;PMS7003;41779;52.360;31.026;2023-12-28T08:51:35;5;3.4;2.8
55857;PMS7003;41779;52.360;31.026;2023-12-28T08:56:59;2.6;2;1.4
55857;PMS7003;41779;52.360;31.026;2023-12-28T09:02:13;3.3;2.8;2.5
55857;PMS7003;41779;52.360;31.026;2023-12-28T09:06:55;3.6;2.2;2
55857;PMS7003;41779;52.360;31.026;2023-12-28T09:12:15;4.2;2;1.6
55857;PMS7003;41779;52.360;31.026;2023-12-28T09:17:23;3;1.6;1.2
55857;PMS7003;41779;52.360;31.026;2023-12-28T09:21:49;3.2;1.2;1
55857;PMS7003;41779;52.360;31.026;2023-12-28T09:26:35;2.4;1;1
55857;PMS7003;41779;52.360;31.026;2023-12-28T09:32:23;2.4;1.4;1
55857;PMS7003;41779;52.360;31.026;2023-12-28T09:37:09;2.4;1;0.8
55857;PMS7003;41779;52.360;31.026;2023-12-28T09:41:57;1;0.8;0.6
55857;PMS7003;41779;52.360;31.026;2023-12-28T09:46:37;1.2;1;0.6
55857;PMS7003;41779;52.360;31.026;2023-12-28T09:51:39;2.2;1.4;1.2
55857;PMS7003;41779;52.360;31.026;2023-12-28T09:56:43;1.4;1.2;1
55857;PMS7003;41779;52.360;31.026;2023-12-28T10:01:45;4;1.5;1.5
55857;PMS7003;41779;52.360;31.026;2023-12-28T10:07:23;1;1;1
55857;PMS7003;41779;52.360;31.026;2023-12-28T10:12:11;1;0.8;0.6
55857;PMS7003;41779;52.360;31.026;2023-12-28T10:16:53;0.6;0.4;0.4
55857;PMS7003;41779;52.360;31.026;2023-12-28T10:21:43;1.4;0.6;0.6
55857;PMS7003;41779;52.360;31.026;2023-12-28T10:27:25;0.8;0.6;0.6
55857;PMS7003;41779;52.360;31.026;2023-12-28T10:31:35;1.6;0.4;0.4
55857;PMS7003;41779;52.360;31.026;2023-12-28T10:37:07;1.4;0.4;0.4
55857;PMS7003;41779;52.360;31.026;2023-12-28T10:41:59;1.6;0.8;0.6
55857;PMS7003;41779;52.360;31.026;2023-12-28T10:46:57;1.6;1.2;0.8
55857;PMS7003;41779;52.360;31.026;2023-12-28T10:52:23;2.2;0.8;0.8
55857;PMS7003;41779;52.360;31.026;2023-12-28T10:57:03;2.4;0.6;0.6
55857;PMS7003;41779;52.360;31.026;2023-12-28T11:02:14;1.8;0.6;0.4
55857;PMS7003;41779;52.360;31.026;2023-12-28T11:06:55;1.5;0.8;0.8
55857;PMS7003;41779;52.360;31.026;2023-12-28T11:12:23;1.2;0.8;0.8
55857;PMS7003;41779;52.360;31.026;2023-12-28T11:17:09;2.2;1;1
55857;PMS7003;41779;52.360;31.026;2023-12-28T11:21:55;2.4;1.4;1
55857;PMS7003;41779;52.360;31.026;2023-12-28T11:26:51;3.4;1.6;1.4
55857;PMS7003;41779;52.360;31.026;2023-12-28T11:31:53;2.6;1.8;1.4
55857;PMS7003;41779;52.360;31.026;2023-12-28T11:36:54;3;1.8;1.4
55857;PMS7003;41779;52.360;31.026;2023-12-28T11:42:23;3;2.2;2
55857;PMS7003;41779;52.360;31.026;2023-12-28T11:47:25;5.2;4;3.2
55857;PMS7003;41779;52.360;31.026;2023-12-28T11:51:53;6.4;3.6;2.6
55857;PMS7003;41779;52.360;31.026;2023-12-28T11:56:47;4.8;3.6;3.2
55857;PMS7003;41779;52.360;31.026;2023-12-28T12:02:21;4.6;4.6;3.6
55857;PMS7003;41779;52.360;31.026;2023-12-28T12:06:35;6;4;2.5
55857;PMS7003;41779;52.360;31.026;2023-12-28T12:11:43;4.8;3;2.2
55857;PMS7003;41779;52.360;31.026;2023-12-28T12:16:35;6.6;3.8;3.6
55857;PMS7003;41779;52.360;31.026;2023-12-28T12:21:35;8.2;4.8;4.2
55857;PMS7003;41779;52.360;31.026;2023-12-28T12:27:21;8;6.4;4.8
55857;PMS7003;41779;52.360;31.026;2023-12-28T12:32:11;9.2;7;5
55857;PMS7003;41779;52.360;31.026;2023-12-28T12:36:35;13.8;9.6;8.2
55857;PMS7003;41779;52.360;31.026;2023-12-28T12:41:40;11.8;9.6;7.4
55857;PMS7003;41779;52.360;31.026;2023-12-28T12:46:43;8;6.4;4.8
55857;PMS7003;41779;52.360;31.026;2023-12-28T12:51:49;9.6;7.4;6.2
55857;PMS7003;41779;52.360;31.026;2023-12-28T12:56:37;3.6;3;2
55857;PMS7003;41779;52.360;31.026;2023-12-28T13:01:51;6.8;2.6;2
55857;PMS7003;41779;52.360;31.026;2023-12-28T13:07:19;9.5;5.8;4.5
55857;PMS7003;41779;52.360;31.026;2023-12-28T13:11:51;6.6;4.2;3
55857;PMS7003;41779;52.360;31.026;2023-12-28T13:16:35;7;4.4;3.8
55857;PMS7003;41779;52.360;31.026;2023-12-28T13:22:05;5.6;2.6;2.6
55857;PMS7003;41779;52.360;31.026;2023-12-28T13:26:49;4.2;3.6;2.8
55857;PMS7003;41779;52.360;31.026;2023-12-28T13:31:45;5;2.2;1.6
55857;PMS7003;41779;52.360;31.026;2023-12-28T13:37:13;5;3.4;2.8
55857;PMS7003;41779;52.360;31.026;2023-12-28T13:42:21;4;3.4;2.2
55857;PMS7003;41779;52.360;31.026;2023-12-28T13:46:37;4;3;2.2
55857;PMS7003;41779;52.360;31.026;2023-12-28T13:52:09;8.8;7.8;6.2
55857;PMS7003;41779;52.360;31.026;2023-12-28T13:57:21;4.2;3.6;2.6
55857;PMS7003;41779;52.360;31.026;2023-12-28T14:01:59;4.4;3.6;2.4
55857;PMS7003;41779;52.360;31.026;2023-12-28T14:06:45;8.3;4;3.5
55857;PMS7003;41779;52.360;31.026;2023-12-28T14:11:43;6.6;4.4;3.4
55857;PMS7003;41779;52.360;31.026;2023-12-28T14:17:09;6.4;4.4;3.2
55857;PMS7003;41779;52.360;31.026;2023-12-28T14:21:35;6;5;4.4
55857;PMS7003;41779;52.360;31.026;2023-12-28T14:26:38;15.2;11.2;9.6
55857;PMS7003;41779;52.360;31.026;2023-12-28T14:32:21;11.8;7.2;5.6
55857;PMS7003;41779;52.360;31.026;2023-12-28T14:36:45;8.6;6.2;4.8
55857;PMS7003;41779;52.360;31.026;2023-12-28T14:41:37;5.2;4.2;3.4
55857;PMS7003;41779;52.360;31.026;2023-12-28T14:46:59;7.6;5.2;4.6
55857;PMS7003;41779;52.360;31.026;2023-12-28T14:52:17;5.6;3.4;3
55857;PMS7003;41779;52.360;31.026;2023-12-28T14:56:35;4.8;3.6;3.2
55857;PMS7003;41779;52.360;31.026;2023-12-28T15:01:51;7.4;5;4.2
55857;PMS7003;41779;52.360;31.026;2023-12-28T15:07:09;9;4.8;4.3
55857;PMS7003;41779;52.360;31.026;2023-12-28T15:12:11;5;3.2;3.2
55857;PMS7003;41779;52.360;31.026;2023-12-28T15:17:23;7.4;4;3.2
55857;PMS7003;41779;52.360;31.026;2023-12-28T15:21:57;5.6;4.4;3.2
55857;PMS7003;41779;52.360;31.026;2023-12-28T15:26:53;4.2;3.4;2.8
55857;PMS7003;41779;52.360;31.026;2023-12-28T15:31:37;5.2;3.6;2.4
55857;PMS7003;41779;52.360;31.026;2023-12-28T15:37:25;9.2;6.2;5.2
55857;PMS7003;41779;52.360;31.026;2023-12-28T15:42:11;7.8;4.8;3.8
55857;PMS7003;41779;52.360;31.026;2023-12-28T15:47:13;11.6;9.6;7
55857;PMS7003;41779;52.360;31.026;2023-12-28T15:52:13;9.4;4.8;3.6
55857;PMS7003;41779;52.360;31.026;2023-12-28T15:57:25;6.8;4.4;3.4
55857;PMS7003;41779;52.360;31.026;2023-12-28T16:02:01;7.2;4.2;3.6
55857;PMS7003;41779;52.360;31.026;2023-12-28T16:06:49;6;4.4;3.4
55857;PMS7003;41779;52.360;31.026;2023-12-28T16:12:25;6.3;4.3;3
55857;PMS7003;41779;52.360;31.026;2023-12-28T16:17:26;6.4;4.8;3.6
55857;PMS7003;41779;52.360;31.026;2023-12-28T16:22:01;9.4;5;4.2
55857;PMS7003;41779;52.360;31.026;2023-12-28T16:27:25;7.2;5.4;3.8
55857;PMS7003;41779;52.360;31.026;2023-12-28T16:32:11;9;7.5;6.3
55857;PMS7003;41779;52.360;31.026;2023-12-28T16:36:37;8.4;5.8;4
55857;PMS7003;41779;52.360;31.026;2023-12-28T16:42:08;9;5.3;4.5
55857;PMS7003;41779;52.360;31.026;2023-12-28T16:47:03;6.4;5;4.2
55857;PMS7003;41779;52.360;31.026;2023-12-28T16:51:59;7.2;4.6;3.8
55857;PMS7003;41779;52.360;31.026;2023-12-28T16:57:11;5.6;4.8;3.4
55857;PMS7003;41779;52.360;31.026;2023-12-28T17:01:53;5.4;4.8;4.8
55857;PMS7003;41779;52.360;31.026;2023-12-28T17:06:57;13;9.6;6.2
55857;PMS7003;41779;52.360;31.026;2023-12-28T17:11:44;8.6;6.6;4.2
55857;PMS7003;41779;52.360;31.026;2023-12-28T17:17:27;4.4;4.2;3.6
55857;PMS7003;41779;52.360;31.026;2023-12-28T17:21:47;10;7.4;4.8
55857;PMS7003;41779;52.360;31.026;2023-12-28T17:27:06;7.6;5.8;4.8
55857;PMS7003;41779;52.360;31.026;2023-12-28T17:32:25;8.2;5.6;4.6
55857;PMS7003;41779;52.360;31.026;2023-12-28T17:37:01;9;6;4.8
55857;PMS7003;41779;52.360;31.026;2023-12-28T17:41:45;10.5;6.3;4.8
55857;PMS7003;41779;52.360;31.026;2023-12-28T17:47:09;8;5.6;4.6
55857;PMS7003;41779;52.360;31.026;2023-12-28T17:52:09;10;7.6;5.4
55857;PMS7003;41779;52.360;31.026;2023-12-28T17:56:47;11.2;7;5.6
55857;PMS7003;41779;52.360;31.026;2023-12-28T18:01:39;9.6;6.8;5.4
55857;PMS7003;41779;52.360;31.026;2023-12-28T18:07:25;11.2;9.4;6.6
55857;PMS7003;41779;52.360;31.026;2023-12-28T18:11:53;7.6;6.8;5.6
55857;PMS7003;41779;52.360;31.026;2023-12-28T18:17:25;11.8;8;5.8
55857;PMS7003;41779;52.360;31.026;2023-12-28T18:22:21;10.8;8;6.4
55857;PMS7003;41779;52.360;31.026;2023-12-28T18:27:09;11.6;7.6;6.6
55857;PMS7003;41779;52.360;31.026;2023-12-28T18:31:35;10.6;7.8;6
55857;PMS7003;41779;52.360;31.026;2023-12-28T18:36:59;11;8.8;7
55857;PMS7003;41779;52.360;31.026;2023-12-28T18:42:13;9.3;7.3;5.5
55857;PMS7003;41779;52.360;31.026;2023-12-28T18:47:21;10.8;8.6;6.2
55857;PMS7003;41779;52.360;31.026;2023-12-28T18:52:11;11;8.4;5.8
55857;PMS7003;41779;52.360;31.026;2023-12-28T18:57:19;10.4;7.6;6.2
55857;PMS7003;41779;52.360;31.026;2023-12-28T19:01:47;11.6;8;6.4
55857;PMS7003;41779;52.360;31.026;2023-12-28T19:06:38;11.6;9.2;7.4
55857;PMS7003;41779;52.360;31.026;2023-12-28T19:11:35;15;9.2;6.8
55857;PMS7003;41779;52.360;31.026;2023-12-28T19:17:21;10.6;8.4;7.4
55857;PMS7003;41779;52.360;31.026;2023-12-28T19:21:43;8.6;7.6;6.6
55857;PMS7003;41779;52.360;31.026;2023-12-28T19:26:35;12;8.6;6.8
55857;PMS7003;41779;52.360;31.026;2023-12-28T19:32:07;11.8;8.2;5.8
55857;PMS7003;41779;52.360;31.026;2023-12-28T19:37:01;13.6;9.6;7.6
55857;PMS7003;41779;52.360;31.026;2023-12-28T19:42:21;15.8;10.8;8.3
55857;PMS7003;41779;52.360;31.026;2023-12-28T19:46:33;12.6;10.6;8.2
55857;PMS7003;41779;52.360;31.026;2023-12-28T19:51:47;12.8;10.4;7.4
55857;PMS7003;41779;52.360;31.026;2023-12-28T19:56:33;14.2;9.2;7.2
55857;PMS7003;41779;52.360;31.026;2023-12-28T20:02:21;15.6;10.4;8
55857;PMS7003;41779;52.360;31.026;2023-12-28T20:07:10;14.4;9.2;7.4
55857;PMS7003;41779;52.360;31.026;2023-12-28T20:12:13;13.6;9.8;7.6
55857;PMS7003;41779;52.360;31.026;2023-12-28T20:17:23;14.6;9;7.2
55857;PMS7003;41779;52.360;31.026;2023-12-28T20:22:07;14.2;10.4;8.2
55857;PMS7003;41779;52.360;31.026;2023-12-28T20:26:41;12.4;9.8;7.2
55857;PMS7003;41779;52.360;31.026;2023-12-28T20:32:11;12.8;9.4;7.6
55857;PMS7003;41779;52.360;31.026;2023-12-28T20:37:21;11.6;10.2;7.2
55857;PMS7003;41779;52.360;31.026;2023-12-28T20:42:03;12.8;9.8;7.8
55857;PMS7003;41779;52.360;31.026;2023-12-28T20:47:11;12.6;11;8.8
55857;PMS7003;41779;52.360;31.026;2023-12-28T20:52:21;11.2;8.6;7.2
55857;PMS7003;41779;52.360;31.026;2023-12-28T20:57:09;11;8.8;5.8
55857;PMS7003;41779;52.360;31.026;2023-12-28T21:01:57;10.8;9;6.8
55857;PMS7003;41779;52.360;31.026;2023-12-28T21:06:51;12.4;9.6;6.8
55857;PMS7003;41779;52.360;31.026;2023-12-28T21:12:04;12.8;9.6;6.8
55857;PMS7003;41779;52.360;31.026;2023-12-28T21:16:35;11.8;8.8;6.8
55857;PMS7003;41779;52.360;31.026;2023-12-28T21:21:51;11.6;8;6.2
55857;PMS7003;41779;52.360;31.026;2023-12-28T21:26:35;11.8;8;6.6
55857;PMS7003;41779;52.360;31.026;2023-12-28T21:32:13;11.4;8.6;7.2
55857;PMS7003;41779;52.360;31.026;2023-12-28T21:37:21;11.4;7.4;5.8
55857;PMS7003;41779;52.360;31.026;2023-12-28T21:41:59;9.4;7;5.2
55857;PMS7003;41779;52.360;31.026;2023-12-28T21:46:33;9.5;8;6.5
55857;PMS7003;41779;52.360;31.026;2023-12-28T21:52:05;10.8;6.6;4.8
55857;PMS7003;41779;52.360;31.026;2023-12-28T21:57:11;8.6;8.4;5.8
55857;PMS7003;41779;52.360;31.026;2023-12-28T22:01:59;10.8;8.6;6.6
55857;PMS7003;41779;52.360;31.026;2023-12-28T22:06:36;9.8;7.2;5
55857;PMS7003;41779;52.360;31.026;2023-12-28T22:12:06;10;9;6.4
55857;PMS7003;41779;52.360;31.026;2023-12-28T22:16:47;10.2;8.2;6.4
55857;PMS7003;41779;52.360;31.026;2023-12-28T22:21:53;11;9.6;7.6
55857;PMS7003;41779;52.360;31.026;2023-12-28T22:27:04;12.8;9.2;8.2
55857;PMS7003;41779;52.360;31.026;2023-12-28T22:32:23;13;9;6.8
55857;PMS7003;41779;52.360;31.026;2023-12-28T22:36:35;9.4;8.2;6.8
55857;PMS7003;41779;52.360;31.026;2023-12-28T22:41:33;13.4;10.2;7.8
55857;PMS7003;41779;52.360;31.026;2023-12-28T22:47:21;11.8;11;9
55857;PMS7003;41779;52.360;31.026;2023-12-28T22:51:59;14.2;11;8
55857;PMS7003;41779;52.360;31.026;2023-12-28T22:56:45;15;12;9
55857;PMS7003;41779;52.360;31.026;2023-12-28T23:01:33;13.4;10.6;7.6
55857;PMS7003;41779;52.360;31.026;2023-12-28T23:07:13;16.4;12.6;9.2
55857;PMS7003;41779;52.360;31.026;2023-12-28T23:11:41;14;11.8;8.8
55857;PMS7003;41779;52.360;31.026;2023-12-28T23:16:51;16;10.4;8.2
55857;PMS7003;41779;52.360;31.026;2023-12-28T23:22:23;15;12.6;9.2
55857;PMS7003;41779;52.360;31.026;2023-12-28T23:27:07;15;11.4;8.8
55857;PMS7003;41779;52.360;31.026;2023-12-28T23:31:43;16.2;13.6;10.2
55857;PMS7003;41779;52.360;31.026;2023-12-28T23:37:01;17;13.2;9.6
55857;PMS7003;41779;52.360;31.026;2023-12-28T23:42:23;18.6;13.4;9.6
55857;PMS7003;41779;52.360;31.026;2023-12-28T23:46:45;16.8;12.5;9.5
55857;PMS7003;41779;52.360;31.026;2023-12-28T23:51:37;18.6;14.6;9.8
55857;PMS7003;41779;52.360;31.026;2023-12-28T23:57:11;17.4;11.6;9.4
